sensor_id;sensor_type;location;lat;lon;timestamp;P1;durP1;ratioP1;P2;durP2;ratioP2
8462;SDS011;4268;52.506;13.462;2023-05-07T00:00:18;21.83;;;20.20;;
8462;SDS011;4268;52.506;13.462;2023-05-07T00:02:44;22.33;;;20.63;;
8462;SDS011;4268;52.506;13.462;2023-05-07T00:05:10;20.47;;;18.87;;
8462;SDS011;4268;52.506;13.462;2023-05-07T00:07:36;20.47;;;18.97;;
8462;SDS011;4268;52.506;13.462;2023-05-07T00:10:02;19.20;;;17.47;;
8462;SDS011;4268;52.506;13.462;2023-05-07T00:12:28;19.10;;;17.67;;
8462;SDS011;4268;52.506;13.462;2023-05-07T00:14:56;19.00;;;17.27;;
8462;SDS011;4268;52.506;13.462;2023-05-07T00:17:22;18.33;;;16.93;;
8462;SDS011;4268;52.506;13.462;2023-05-07T00:19:48;18.67;;;17.17;;
8462;SDS011;4268;52.506;13.462;2023-05-07T00:22:14;17.50;;;16.20;;
8462;SDS011;4268;52.506;13.462;2023-05-07T00:24:39;17.60;;;16.30;;
8462;SDS011;4268;52.506;13.462;2023-05-07T00:27:05;17.40;;;16.10;;
8462;SDS011;4268;52.506;13.462;2023-05-07T00:29:30;17.87;;;16.57;;
8462;SDS011;4268;52.506;13.462;2023-05-07T00:31:56;18.87;;;17.53;;
8462;SDS011;4268;52.506;13.462;2023-05-07T00:34:21;18.27;;;16.73;;
8462;SDS011;4268;52.506;13.462;2023-05-07T00:36:47;18.87;;;17.47;;
8462;SDS011;4268;52.506;13.462;2023-05-07T00:39:13;19.60;;;18.10;;
8462;SDS011;4268;52.506;13.462;2023-05-07T00:41:38;21.10;;;19.60;;
8462;SDS011;4268;52.506;13.462;2023-05-07T00:44:04;21.57;;;19.93;;
8462;SDS011;4268;52.506;13.462;2023-05-07T00:46:30;19.97;;;18.57;;
8462;SDS011;4268;52.506;13.462;2023-05-07T00:48:56;20.13;;;18.60;;
8462;SDS011;4268;52.506;13.462;2023-05-07T00:51:22;20.40;;;18.97;;
8462;SDS011;4268;52.506;13.462;2023-05-07T00:53:52;19.60;;;18.00;;
8462;SDS011;4268;52.506;13.462;2023-05-07T00:56:20;19.03;;;17.63;;
8462;SDS011;4268;52.506;13.462;2023-05-07T00:58:47;19.83;;;18.33;;
8462;SDS011;4268;52.506;13.462;2023-05-07T01:01:13;19.13;;;17.83;;
8462;SDS011;4268;52.506;13.462;2023-05-07T01:03:40;19.77;;;18.27;;
8462;SDS011;4268;52.506;13.462;2023-05-07T01:06:06;21.33;;;19.73;;
8462;SDS011;4268;52.506;13.462;2023-05-07T01:08:33;20.77;;;19.20;;
8462;SDS011;4268;52.506;13.462;2023-05-07T01:11:00;19.60;;;18.20;;
8462;SDS011;4268;52.506;13.462;2023-05-07T01:13:26;20.67;;;19.17;;
8462;SDS011;4268;52.506;13.462;2023-05-07T01:15:52;20.83;;;19.33;;
8462;SDS011;4268;52.506;13.462;2023-05-07T01:18:18;20.87;;;19.17;;
8462;SDS011;4268;52.506;13.462;2023-05-07T01:20:43;20.43;;;19.03;;
8462;SDS011;4268;52.506;13.462;2023-05-07T01:23:09;21.17;;;19.47;;
8462;SDS011;4268;52.506;13.462;2023-05-07T01:25:37;21.10;;;19.60;;
8462;SDS011;4268;52.506;13.462;2023-05-07T01:28:03;20.07;;;18.57;;
8462;SDS011;4268;52.506;13.462;2023-05-07T01:30:28;20.47;;;18.97;;
8462;SDS011;4268;52.506;13.462;2023-05-07T01:33:00;19.70;;;18.30;;
8462;SDS011;4268;52.506;13.462;2023-05-07T01:35:37;18.83;;;17.43;;
8462;SDS011;4268;52.506;13.462;2023-05-07T01:38:08;18.57;;;17.17;;
8462;SDS011;4268;52.506;13.462;2023-05-07T01:40:34;18.43;;;16.93;;
8462;SDS011;4268;52.506;13.462;2023-05-07T01:43:00;18.13;;;16.83;;
8462;SDS011;4268;52.506;13.462;2023-05-07T01:45:27;16.83;;;15.47;;
8462;SDS011;4268;52.506;13.462;2023-05-07T01:47:53;15.67;;;14.53;;
8462;SDS011;4268;52.506;13.462;2023-05-07T01:50:20;15.53;;;14.43;;
8462;SDS011;4268;52.506;13.462;2023-05-07T01:52:46;14.93;;;13.83;;
8462;SDS011;4268;52.506;13.462;2023-05-07T01:55:12;15.53;;;14.43;;
8462;SDS011;4268;52.506;13.462;2023-05-07T01:57:38;15.23;;;14.03;;
8462;SDS011;4268;52.506;13.462;2023-05-07T02:00:04;15.47;;;14.27;;
8462;SDS011;4268;52.506;13.462;2023-05-07T02:02:31;15.30;;;14.00;;
8462;SDS011;4268;52.506;13.462;2023-05-07T02:04:58;14.67;;;13.47;;
8462;SDS011;4268;52.506;13.462;2023-05-07T02:07:24;15.13;;;14.00;;
8462;SDS011;4268;52.506;13.462;2023-05-07T02:09:49;15.27;;;13.87;;
8462;SDS011;4268;52.506;13.462;2023-05-07T02:12:15;14.80;;;13.63;;
8462;SDS011;4268;52.506;13.462;2023-05-07T02:14:41;15.63;;;14.27;;
8462;SDS011;4268;52.506;13.462;2023-05-07T02:17:07;15.00;;;13.70;;
8462;SDS011;4268;52.506;13.462;2023-05-07T02:19:32;16.40;;;15.03;;
8462;SDS011;4268;52.506;13.462;2023-05-07T02:21:58;15.90;;;14.60;;
8462;SDS011;4268;52.506;13.462;2023-05-07T02:24:23;14.70;;;13.60;;
8462;SDS011;4268;52.506;13.462;2023-05-07T02:26:49;15.03;;;13.77;;
8462;SDS011;4268;52.506;13.462;2023-05-07T02:29:14;15.13;;;13.83;;
8462;SDS011;4268;52.506;13.462;2023-05-07T02:31:40;15.13;;;13.83;;
8462;SDS011;4268;52.506;13.462;2023-05-07T02:34:05;14.87;;;13.47;;
8462;SDS011;4268;52.506;13.462;2023-05-07T02:36:31;15.07;;;13.67;;
8462;SDS011;4268;52.506;13.462;2023-05-07T02:38:56;14.73;;;13.50;;
8462;SDS011;4268;52.506;13.462;2023-05-07T02:41:22;14.90;;;13.70;;
8462;SDS011;4268;52.506;13.462;2023-05-07T02:43:47;14.83;;;13.60;;
8462;SDS011;4268;52.506;13.462;2023-05-07T02:46:12;15.13;;;13.93;;
8462;SDS011;4268;52.506;13.462;2023-05-07T02:48:38;15.30;;;13.90;;
8462;SDS011;4268;52.506;13.462;2023-05-07T02:51:04;15.50;;;14.30;;
8462;SDS011;4268;52.506;13.462;2023-05-07T02:53:30;14.27;;;13.07;;
8462;SDS011;4268;52.506;13.462;2023-05-07T02:55:56;13.43;;;12.30;;
8462;SDS011;4268;52.506;13.462;2023-05-07T02:58:23;14.03;;;12.93;;
8462;SDS011;4268;52.506;13.462;2023-05-07T03:00:48;13.90;;;12.70;;
8462;SDS011;4268;52.506;13.462;2023-05-07T03:03:14;14.00;;;12.90;;
8462;SDS011;4268;52.506;13.462;2023-05-07T03:05:39;13.70;;;12.50;;
8462;SDS011;4268;52.506;13.462;2023-05-07T03:08:05;12.80;;;11.70;;
8462;SDS011;4268;52.506;13.462;2023-05-07T03:10:31;13.33;;;12.23;;
8462;SDS011;4268;52.506;13.462;2023-05-07T03:12:57;13.23;;;12.20;;
8462;SDS011;4268;52.506;13.462;2023-05-07T03:15:22;12.80;;;11.70;;
8462;SDS011;4268;52.506;13.462;2023-05-07T03:17:48;13.87;;;12.83;;
8462;SDS011;4268;52.506;13.462;2023-05-07T03:20:14;13.67;;;12.67;;
8462;SDS011;4268;52.506;13.462;2023-05-07T03:22:39;13.57;;;12.37;;
8462;SDS011;4268;52.506;13.462;2023-05-07T03:25:05;12.53;;;11.53;;
8462;SDS011;4268;52.506;13.462;2023-05-07T03:27:31;13.73;;;12.63;;
8462;SDS011;4268;52.506;13.462;2023-05-07T03:29:57;13.13;;;12.10;;
8462;SDS011;4268;52.506;13.462;2023-05-07T03:32:22;14.43;;;13.23;;
8462;SDS011;4268;52.506;13.462;2023-05-07T03:34:48;14.80;;;13.50;;
8462;SDS011;4268;52.506;13.462;2023-05-07T03:37:13;13.97;;;12.80;;
8462;SDS011;4268;52.506;13.462;2023-05-07T03:39:39;15.20;;;13.70;;
8462;SDS011;4268;52.506;13.462;2023-05-07T03:42:04;14.73;;;13.63;;
8462;SDS011;4268;52.506;13.462;2023-05-07T03:44:30;14.87;;;13.77;;
8462;SDS011;4268;52.506;13.462;2023-05-07T03:46:55;14.80;;;13.60;;
8462;SDS011;4268;52.506;13.462;2023-05-07T03:49:21;14.63;;;13.43;;
8462;SDS011;4268;52.506;13.462;2023-05-07T03:51:46;14.70;;;13.33;;
8462;SDS011;4268;52.506;13.462;2023-05-07T03:54:12;14.20;;;13.00;;
8462;SDS011;4268;52.506;13.462;2023-05-07T03:56:37;13.97;;;12.77;;
8462;SDS011;4268;52.506;13.462;2023-05-07T03:59:03;14.83;;;13.53;;
8462;SDS011;4268;52.506;13.462;2023-05-07T04:01:28;14.83;;;13.67;;
8462;SDS011;4268;52.506;13.462;2023-05-07T04:03:54;14.67;;;13.47;;
8462;SDS011;4268;52.506;13.462;2023-05-07T04:06:20;13.57;;;12.47;;
8462;SDS011;4268;52.506;13.462;2023-05-07T04:08:45;14.07;;;12.87;;
8462;SDS011;4268;52.506;13.462;2023-05-07T04:11:11;13.77;;;12.70;;
8462;SDS011;4268;52.506;13.462;2023-05-07T04:13:36;14.07;;;12.97;;
8462;SDS011;4268;52.506;13.462;2023-05-07T04:16:02;13.67;;;12.47;;
8462;SDS011;4268;52.506;13.462;2023-05-07T04:18:29;16.47;;;15.20;;
8462;SDS011;4268;52.506;13.462;2023-05-07T04:20:54;13.27;;;12.17;;
8462;SDS011;4268;52.506;13.462;2023-05-07T04:23:20;13.10;;;12.10;;
8462;SDS011;4268;52.506;13.462;2023-05-07T04:25:45;12.07;;;11.17;;
8462;SDS011;4268;52.506;13.462;2023-05-07T04:28:11;13.03;;;11.93;;
8462;SDS011;4268;52.506;13.462;2023-05-07T04:30:37;12.23;;;11.23;;
8462;SDS011;4268;52.506;13.462;2023-05-07T04:33:03;12.83;;;11.83;;
8462;SDS011;4268;52.506;13.462;2023-05-07T04:35:28;11.90;;;10.93;;
8462;SDS011;4268;52.506;13.462;2023-05-07T04:37:54;12.63;;;11.63;;
8462;SDS011;4268;52.506;13.462;2023-05-07T04:40:20;12.50;;;11.40;;
8462;SDS011;4268;52.506;13.462;2023-05-07T04:42:45;11.97;;;10.87;;
8462;SDS011;4268;52.506;13.462;2023-05-07T04:45:11;11.50;;;10.60;;
8462;SDS011;4268;52.506;13.462;2023-05-07T04:47:37;11.30;;;10.50;;
8462;SDS011;4268;52.506;13.462;2023-05-07T04:50:03;11.53;;;10.63;;
8462;SDS011;4268;52.506;13.462;2023-05-07T04:52:29;11.00;;;10.13;;
8462;SDS011;4268;52.506;13.462;2023-05-07T04:54:56;11.27;;;10.37;;
8462;SDS011;4268;52.506;13.462;2023-05-07T04:57:21;9.53;;;8.73;;
8462;SDS011;4268;52.506;13.462;2023-05-07T04:59:47;9.30;;;8.50;;
8462;SDS011;4268;52.506;13.462;2023-05-07T05:02:12;9.30;;;8.53;;
8462;SDS011;4268;52.506;13.462;2023-05-07T05:04:38;9.77;;;9.07;;
8462;SDS011;4268;52.506;13.462;2023-05-07T05:07:03;8.47;;;7.70;;
8462;SDS011;4268;52.506;13.462;2023-05-07T05:09:30;9.20;;;8.40;;
8462;SDS011;4268;52.506;13.462;2023-05-07T05:11:55;8.87;;;8.07;;
8462;SDS011;4268;52.506;13.462;2023-05-07T05:14:21;8.60;;;7.90;;
8462;SDS011;4268;52.506;13.462;2023-05-07T05:16:47;8.43;;;7.73;;
8462;SDS011;4268;52.506;13.462;2023-05-07T05:19:12;8.67;;;7.97;;
8462;SDS011;4268;52.506;13.462;2023-05-07T05:21:37;9.00;;;8.30;;
8462;SDS011;4268;52.506;13.462;2023-05-07T05:24:03;9.30;;;8.50;;
8462;SDS011;4268;52.506;13.462;2023-05-07T05:26:29;9.63;;;8.73;;
8462;SDS011;4268;52.506;13.462;2023-05-07T05:28:54;9.17;;;8.40;;
8462;SDS011;4268;52.506;13.462;2023-05-07T05:31:19;8.57;;;7.87;;
8462;SDS011;4268;52.506;13.462;2023-05-07T05:33:46;9.13;;;8.33;;
8462;SDS011;4268;52.506;13.462;2023-05-07T05:36:11;8.67;;;8.03;;
8462;SDS011;4268;52.506;13.462;2023-05-07T05:38:38;9.50;;;8.70;;
8462;SDS011;4268;52.506;13.462;2023-05-07T05:41:03;9.40;;;8.60;;
8462;SDS011;4268;52.506;13.462;2023-05-07T05:43:29;8.80;;;8.10;;
8462;SDS011;4268;52.506;13.462;2023-05-07T05:45:55;10.93;;;10.03;;
8462;SDS011;4268;52.506;13.462;2023-05-07T05:48:21;9.77;;;8.97;;
8462;SDS011;4268;52.506;13.462;2023-05-07T05:50:46;9.83;;;8.93;;
8462;SDS011;4268;52.506;13.462;2023-05-07T05:53:12;9.43;;;8.73;;
8462;SDS011;4268;52.506;13.462;2023-05-07T05:55:37;8.87;;;8.17;;
8462;SDS011;4268;52.506;13.462;2023-05-07T05:58:03;9.03;;;8.13;;
8462;SDS011;4268;52.506;13.462;2023-05-07T06:00:28;8.90;;;8.10;;
8462;SDS011;4268;52.506;13.462;2023-05-07T06:02:54;9.13;;;8.33;;
8462;SDS011;4268;52.506;13.462;2023-05-07T06:05:20;9.03;;;8.23;;
8462;SDS011;4268;52.506;13.462;2023-05-07T06:07:49;9.10;;;8.20;;
8462;SDS011;4268;52.506;13.462;2023-05-07T06:10:15;8.73;;;8.03;;
8462;SDS011;4268;52.506;13.462;2023-05-07T06:12:40;8.87;;;8.07;;
8462;SDS011;4268;52.506;13.462;2023-05-07T06:15:06;8.43;;;7.73;;
8462;SDS011;4268;52.506;13.462;2023-05-07T06:17:31;8.50;;;7.70;;
8462;SDS011;4268;52.506;13.462;2023-05-07T06:19:57;8.20;;;7.40;;
8462;SDS011;4268;52.506;13.462;2023-05-07T06:22:22;8.60;;;7.90;;
8462;SDS011;4268;52.506;13.462;2023-05-07T06:24:48;8.70;;;8.00;;
8462;SDS011;4268;52.506;13.462;2023-05-07T06:27:15;7.77;;;7.07;;
8462;SDS011;4268;52.506;13.462;2023-05-07T06:29:40;8.00;;;7.40;;
8462;SDS011;4268;52.506;13.462;2023-05-07T06:32:10;8.03;;;7.33;;
8462;SDS011;4268;52.506;13.462;2023-05-07T06:34:37;8.83;;;8.10;;
8462;SDS011;4268;52.506;13.462;2023-05-07T06:37:03;8.93;;;8.23;;
8462;SDS011;4268;52.506;13.462;2023-05-07T06:39:28;8.70;;;7.93;;
8462;SDS011;4268;52.506;13.462;2023-05-07T06:41:54;8.27;;;7.50;;
8462;SDS011;4268;52.506;13.462;2023-05-07T06:44:19;8.13;;;7.50;;
8462;SDS011;4268;52.506;13.462;2023-05-07T06:46:45;8.00;;;7.30;;
8462;SDS011;4268;52.506;13.462;2023-05-07T06:49:11;7.20;;;6.60;;
8462;SDS011;4268;52.506;13.462;2023-05-07T06:51:37;6.40;;;5.90;;
8462;SDS011;4268;52.506;13.462;2023-05-07T06:54:03;7.90;;;6.60;;
8462;SDS011;4268;52.506;13.462;2023-05-07T06:56:29;6.77;;;6.17;;
8462;SDS011;4268;52.506;13.462;2023-05-07T06:58:55;6.30;;;5.80;;
8462;SDS011;4268;52.506;13.462;2023-05-07T07:01:21;6.00;;;5.50;;
8462;SDS011;4268;52.506;13.462;2023-05-07T07:03:47;6.10;;;5.60;;
8462;SDS011;4268;52.506;13.462;2023-05-07T07:06:13;5.60;;;5.20;;
8462;SDS011;4268;52.506;13.462;2023-05-07T07:08:38;5.90;;;5.40;;
8462;SDS011;4268;52.506;13.462;2023-05-07T07:11:07;5.87;;;5.47;;
8462;SDS011;4268;52.506;13.462;2023-05-07T07:13:33;5.60;;;5.20;;
8462;SDS011;4268;52.506;13.462;2023-05-07T07:15:59;5.03;;;4.70;;
8462;SDS011;4268;52.506;13.462;2023-05-07T07:18:25;5.80;;;5.30;;
8462;SDS011;4268;52.506;13.462;2023-05-07T07:20:50;5.47;;;5.00;;
8462;SDS011;4268;52.506;13.462;2023-05-07T07:23:16;5.70;;;5.30;;
8462;SDS011;4268;52.506;13.462;2023-05-07T07:25:41;5.60;;;5.20;;
8462;SDS011;4268;52.506;13.462;2023-05-07T07:28:07;6.07;;;5.50;;
8462;SDS011;4268;52.506;13.462;2023-05-07T07:30:32;5.10;;;4.70;;
8462;SDS011;4268;52.506;13.462;2023-05-07T07:32:58;5.33;;;4.93;;
8462;SDS011;4268;52.506;13.462;2023-05-07T07:35:31;5.60;;;5.20;;
8462;SDS011;4268;52.506;13.462;2023-05-07T07:37:57;6.10;;;5.60;;
8462;SDS011;4268;52.506;13.462;2023-05-07T07:40:23;5.57;;;5.17;;
8462;SDS011;4268;52.506;13.462;2023-05-07T07:42:49;6.43;;;5.47;;
8462;SDS011;4268;52.506;13.462;2023-05-07T07:45:15;5.20;;;4.80;;
8462;SDS011;4268;52.506;13.462;2023-05-07T07:47:41;5.20;;;4.50;;
8462;SDS011;4268;52.506;13.462;2023-05-07T07:50:06;5.30;;;4.90;;
8462;SDS011;4268;52.506;13.462;2023-05-07T07:52:32;5.03;;;4.53;;
8462;SDS011;4268;52.506;13.462;2023-05-07T07:54:58;5.10;;;4.70;;
8462;SDS011;4268;52.506;13.462;2023-05-07T07:57:24;4.47;;;4.10;;
8462;SDS011;4268;52.506;13.462;2023-05-07T07:59:49;4.47;;;4.07;;
8462;SDS011;4268;52.506;13.462;2023-05-07T08:02:15;4.30;;;4.00;;
8462;SDS011;4268;52.506;13.462;2023-05-07T08:04:41;4.40;;;4.10;;
8462;SDS011;4268;52.506;13.462;2023-05-07T08:07:08;4.70;;;4.40;;
8462;SDS011;4268;52.506;13.462;2023-05-07T08:09:34;4.20;;;3.90;;
8462;SDS011;4268;52.506;13.462;2023-05-07T08:12:00;4.60;;;4.20;;
8462;SDS011;4268;52.506;13.462;2023-05-07T08:14:26;4.27;;;3.97;;
8462;SDS011;4268;52.506;13.462;2023-05-07T08:16:53;4.13;;;3.83;;
8462;SDS011;4268;52.506;13.462;2023-05-07T08:19:19;4.00;;;3.70;;
8462;SDS011;4268;52.506;13.462;2023-05-07T08:21:44;5.07;;;4.00;;
8462;SDS011;4268;52.506;13.462;2023-05-07T08:24:12;4.03;;;3.80;;
8462;SDS011;4268;52.506;13.462;2023-05-07T08:26:38;4.97;;;4.47;;
8462;SDS011;4268;52.506;13.462;2023-05-07T08:29:04;4.60;;;4.20;;
8462;SDS011;4268;52.506;13.462;2023-05-07T08:31:30;4.13;;;3.83;;
8462;SDS011;4268;52.506;13.462;2023-05-07T08:33:56;4.40;;;4.10;;
8462;SDS011;4268;52.506;13.462;2023-05-07T08:36:23;4.57;;;4.27;;
8462;SDS011;4268;52.506;13.462;2023-05-07T08:38:48;4.27;;;3.97;;
8462;SDS011;4268;52.506;13.462;2023-05-07T08:41:14;4.07;;;3.77;;
8462;SDS011;4268;52.506;13.462;2023-05-07T08:43:40;4.10;;;3.80;;
8462;SDS011;4268;52.506;13.462;2023-05-07T08:46:06;4.60;;;3.90;;
8462;SDS011;4268;52.506;13.462;2023-05-07T08:48:34;4.17;;;3.87;;
8462;SDS011;4268;52.506;13.462;2023-05-07T08:51:00;4.27;;;3.83;;
8462;SDS011;4268;52.506;13.462;2023-05-07T08:53:26;4.20;;;3.90;;
8462;SDS011;4268;52.506;13.462;2023-05-07T08:55:52;4.43;;;4.10;;
8462;SDS011;4268;52.506;13.462;2023-05-07T08:58:18;4.30;;;4.00;;
8462;SDS011;4268;52.506;13.462;2023-05-07T09:00:43;4.37;;;4.07;;
8462;SDS011;4268;52.506;13.462;2023-05-07T09:03:09;4.30;;;4.00;;
8462;SDS011;4268;52.506;13.462;2023-05-07T09:05:37;4.07;;;3.80;;
8462;SDS011;4268;52.506;13.462;2023-05-07T09:08:04;4.33;;;4.03;;
8462;SDS011;4268;52.506;13.462;2023-05-07T09:10:32;4.60;;;4.20;;
8462;SDS011;4268;52.506;13.462;2023-05-07T09:12:58;4.60;;;4.20;;
8462;SDS011;4268;52.506;13.462;2023-05-07T09:15:24;4.30;;;4.00;;
8462;SDS011;4268;52.506;13.462;2023-05-07T09:17:50;4.50;;;4.20;;
8462;SDS011;4268;52.506;13.462;2023-05-07T09:20:15;4.30;;;4.00;;
8462;SDS011;4268;52.506;13.462;2023-05-07T09:22:41;5.27;;;4.43;;
8462;SDS011;4268;52.506;13.462;2023-05-07T09:25:09;4.47;;;4.10;;
8462;SDS011;4268;52.506;13.462;2023-05-07T09:27:34;4.63;;;4.23;;
8462;SDS011;4268;52.506;13.462;2023-05-07T09:30:02;3.90;;;3.60;;
8462;SDS011;4268;52.506;13.462;2023-05-07T09:32:34;4.37;;;4.00;;
8462;SDS011;4268;52.506;13.462;2023-05-07T09:35:01;4.33;;;4.03;;
8462;SDS011;4268;52.506;13.462;2023-05-07T09:37:27;4.10;;;3.90;;
8462;SDS011;4268;52.506;13.462;2023-05-07T09:39:52;4.10;;;3.80;;
8462;SDS011;4268;52.506;13.462;2023-05-07T09:42:22;4.03;;;3.73;;
8462;SDS011;4268;52.506;13.462;2023-05-07T09:44:49;4.10;;;3.80;;
8462;SDS011;4268;52.506;13.462;2023-05-07T09:47:18;3.70;;;3.40;;
8462;SDS011;4268;52.506;13.462;2023-05-07T09:49:46;3.43;;;3.23;;
8462;SDS011;4268;52.506;13.462;2023-05-07T09:52:12;3.90;;;3.50;;
8462;SDS011;4268;52.506;13.462;2023-05-07T09:54:39;3.70;;;3.40;;
8462;SDS011;4268;52.506;13.462;2023-05-07T09:57:07;3.43;;;3.13;;
8462;SDS011;4268;52.506;13.462;2023-05-07T09:59:36;3.43;;;3.23;;
8462;SDS011;4268;52.506;13.462;2023-05-07T10:02:03;3.90;;;3.60;;
8462;SDS011;4268;52.506;13.462;2023-05-07T10:04:29;3.13;;;2.97;;
8462;SDS011;4268;52.506;13.462;2023-05-07T10:06:56;3.67;;;3.30;;
8462;SDS011;4268;52.506;13.462;2023-05-07T10:09:23;3.37;;;3.17;;
8462;SDS011;4268;52.506;13.462;2023-05-07T10:11:50;3.30;;;3.10;;
8462;SDS011;4268;52.506;13.462;2023-05-07T10:14:16;3.30;;;3.10;;
8462;SDS011;4268;52.506;13.462;2023-05-07T10:16:42;3.30;;;3.10;;
8462;SDS011;4268;52.506;13.462;2023-05-07T10:19:08;3.00;;;2.80;;
8462;SDS011;4268;52.506;13.462;2023-05-07T10:21:37;3.40;;;3.10;;
8462;SDS011;4268;52.506;13.462;2023-05-07T10:24:04;3.40;;;3.20;;
8462;SDS011;4268;52.506;13.462;2023-05-07T10:26:42;3.27;;;3.07;;
8462;SDS011;4268;52.506;13.462;2023-05-07T10:34:44;3.30;;;3.10;;
8462;SDS011;4268;52.506;13.462;2023-05-07T10:37:11;3.20;;;3.00;;
8462;SDS011;4268;52.506;13.462;2023-05-07T10:39:37;3.43;;;3.23;;
8462;SDS011;4268;52.506;13.462;2023-05-07T10:42:09;3.57;;;3.37;;
8462;SDS011;4268;52.506;13.462;2023-05-07T10:44:36;3.50;;;3.23;;
8462;SDS011;4268;52.506;13.462;2023-05-07T10:47:12;3.30;;;3.00;;
8462;SDS011;4268;52.506;13.462;2023-05-07T10:52:11;3.20;;;3.00;;
8462;SDS011;4268;52.506;13.462;2023-05-07T10:54:38;2.90;;;2.80;;
8462;SDS011;4268;52.506;13.462;2023-05-07T10:58:04;3.50;;;3.20;;
8462;SDS011;4268;52.506;13.462;2023-05-07T11:00:47;3.07;;;2.90;;
8462;SDS011;4268;52.506;13.462;2023-05-07T11:05:25;2.87;;;2.67;;
8462;SDS011;4268;52.506;13.462;2023-05-07T11:07:55;2.93;;;2.83;;
8462;SDS011;4268;52.506;13.462;2023-05-07T11:13:12;3.30;;;3.00;;
8462;SDS011;4268;52.506;13.462;2023-05-07T11:15:40;2.80;;;2.70;;
8462;SDS011;4268;52.506;13.462;2023-05-07T11:18:10;3.37;;;3.17;;
8462;SDS011;4268;52.506;13.462;2023-05-07T11:20:48;3.50;;;3.20;;
8462;SDS011;4268;52.506;13.462;2023-05-07T11:26:02;3.47;;;3.20;;
8462;SDS011;4268;52.506;13.462;2023-05-07T11:28:36;3.00;;;2.80;;
8462;SDS011;4268;52.506;13.462;2023-05-07T11:31:03;3.63;;;3.40;;
8462;SDS011;4268;52.506;13.462;2023-05-07T11:33:32;3.57;;;3.30;;
8462;SDS011;4268;52.506;13.462;2023-05-07T11:35:58;3.47;;;3.17;;
8462;SDS011;4268;52.506;13.462;2023-05-07T11:38:25;3.30;;;3.10;;
8462;SDS011;4268;52.506;13.462;2023-05-07T11:40:55;3.53;;;3.23;;
8462;SDS011;4268;52.506;13.462;2023-05-07T11:43:22;3.23;;;3.03;;
8462;SDS011;4268;52.506;13.462;2023-05-07T11:45:48;3.30;;;3.10;;
8462;SDS011;4268;52.506;13.462;2023-05-07T11:48:14;3.33;;;3.03;;
8462;SDS011;4268;52.506;13.462;2023-05-07T11:50:53;3.40;;;3.10;;
8462;SDS011;4268;52.506;13.462;2023-05-07T11:53:25;3.50;;;3.20;;
8462;SDS011;4268;52.506;13.462;2023-05-07T11:55:52;3.43;;;3.10;;
8462;SDS011;4268;52.506;13.462;2023-05-07T11:58:22;3.53;;;3.30;;
8462;SDS011;4268;52.506;13.462;2023-05-07T12:00:49;3.23;;;3.03;;
8462;SDS011;4268;52.506;13.462;2023-05-07T12:03:16;3.00;;;2.90;;
8462;SDS011;4268;52.506;13.462;2023-05-07T12:05:42;3.00;;;2.80;;
8462;SDS011;4268;52.506;13.462;2023-05-07T12:08:08;3.00;;;2.83;;
8462;SDS011;4268;52.506;13.462;2023-05-07T12:10:43;3.30;;;3.00;;
8462;SDS011;4268;52.506;13.462;2023-05-07T12:13:20;3.17;;;2.97;;
8462;SDS011;4268;52.506;13.462;2023-05-07T12:15:49;3.10;;;2.90;;
8462;SDS011;4268;52.506;13.462;2023-05-07T12:18:19;2.97;;;2.80;;
8462;SDS011;4268;52.506;13.462;2023-05-07T12:20:45;3.00;;;2.80;;
8462;SDS011;4268;52.506;13.462;2023-05-07T12:23:11;3.50;;;3.30;;
8462;SDS011;4268;52.506;13.462;2023-05-07T12:25:37;3.10;;;2.90;;
8462;SDS011;4268;52.506;13.462;2023-05-07T12:28:04;3.20;;;3.00;;
8462;SDS011;4268;52.506;13.462;2023-05-07T12:30:37;3.13;;;2.80;;
8462;SDS011;4268;52.506;13.462;2023-05-07T12:33:03;3.10;;;2.90;;
8462;SDS011;4268;52.506;13.462;2023-05-07T12:35:30;3.00;;;2.90;;
8462;SDS011;4268;52.506;13.462;2023-05-07T12:37:56;3.53;;;3.33;;
8462;SDS011;4268;52.506;13.462;2023-05-07T12:40:24;3.37;;;3.07;;
8462;SDS011;4268;52.506;13.462;2023-05-07T12:43:17;3.30;;;3.10;;
8462;SDS011;4268;52.506;13.462;2023-05-07T12:45:44;3.27;;;3.00;;
8462;SDS011;4268;52.506;13.462;2023-05-07T12:48:12;3.17;;;2.97;;
8462;SDS011;4268;52.506;13.462;2023-05-07T12:50:37;3.13;;;2.90;;
8462;SDS011;4268;52.506;13.462;2023-05-07T12:53:03;3.50;;;3.30;;
8462;SDS011;4268;52.506;13.462;2023-05-07T12:55:39;3.50;;;3.30;;
8462;SDS011;4268;52.506;13.462;2023-05-07T12:58:06;3.10;;;2.90;;
8462;SDS011;4268;52.506;13.462;2023-05-07T13:00:38;4.47;;;2.77;;
8462;SDS011;4268;52.506;13.462;2023-05-07T13:03:04;3.03;;;2.70;;
8462;SDS011;4268;52.506;13.462;2023-05-07T13:05:29;2.97;;;2.70;;
8462;SDS011;4268;52.506;13.462;2023-05-07T13:07:56;2.70;;;2.50;;
8462;SDS011;4268;52.506;13.462;2023-05-07T13:10:22;3.57;;;3.30;;
8462;SDS011;4268;52.506;13.462;2023-05-07T13:12:48;3.07;;;2.87;;
8462;SDS011;4268;52.506;13.462;2023-05-07T13:15:14;2.97;;;2.60;;
8462;SDS011;4268;52.506;13.462;2023-05-07T13:17:40;2.80;;;2.60;;
8462;SDS011;4268;52.506;13.462;2023-05-07T13:20:06;2.80;;;2.60;;
8462;SDS011;4268;52.506;13.462;2023-05-07T13:22:33;3.03;;;2.77;;
8462;SDS011;4268;52.506;13.462;2023-05-07T13:24:58;3.10;;;2.83;;
8462;SDS011;4268;52.506;13.462;2023-05-07T13:27:24;2.90;;;2.70;;
8462;SDS011;4268;52.506;13.462;2023-05-07T13:29:49;2.73;;;2.63;;
8462;SDS011;4268;52.506;13.462;2023-05-07T13:32:15;2.73;;;2.53;;
8462;SDS011;4268;52.506;13.462;2023-05-07T13:34:40;2.97;;;2.77;;
8462;SDS011;4268;52.506;13.462;2023-05-07T13:37:06;2.93;;;2.73;;
8462;SDS011;4268;52.506;13.462;2023-05-07T13:39:32;3.30;;;2.57;;
8462;SDS011;4268;52.506;13.462;2023-05-07T13:41:58;2.80;;;2.60;;
8462;SDS011;4268;52.506;13.462;2023-05-07T13:44:23;3.00;;;2.80;;
8462;SDS011;4268;52.506;13.462;2023-05-07T13:46:49;3.00;;;2.80;;
8462;SDS011;4268;52.506;13.462;2023-05-07T13:49:15;3.80;;;2.47;;
8462;SDS011;4268;52.506;13.462;2023-05-07T13:51:40;2.60;;;2.50;;
8462;SDS011;4268;52.506;13.462;2023-05-07T13:54:06;2.60;;;2.50;;
8462;SDS011;4268;52.506;13.462;2023-05-07T13:56:31;2.73;;;2.53;;
8462;SDS011;4268;52.506;13.462;2023-05-07T13:58:57;2.77;;;2.60;;
8462;SDS011;4268;52.506;13.462;2023-05-07T14:01:25;3.90;;;2.80;;
8462;SDS011;4268;52.506;13.462;2023-05-07T14:03:51;3.00;;;2.80;;
8462;SDS011;4268;52.506;13.462;2023-05-07T14:06:16;2.90;;;2.70;;
8462;SDS011;4268;52.506;13.462;2023-05-07T14:08:42;3.17;;;2.97;;
8462;SDS011;4268;52.506;13.462;2023-05-07T14:11:07;3.57;;;2.80;;
8462;SDS011;4268;52.506;13.462;2023-05-07T14:13:33;2.90;;;2.70;;
8462;SDS011;4268;52.506;13.462;2023-05-07T14:15:59;2.93;;;2.73;;
8462;SDS011;4268;52.506;13.462;2023-05-07T14:18:25;3.67;;;2.93;;
8462;SDS011;4268;52.506;13.462;2023-05-07T14:20:51;2.80;;;2.70;;
8462;SDS011;4268;52.506;13.462;2023-05-07T14:23:16;2.80;;;2.70;;
8462;SDS011;4268;52.506;13.462;2023-05-07T14:25:50;2.90;;;2.70;;
8462;SDS011;4268;52.506;13.462;2023-05-07T14:28:16;3.20;;;3.00;;
8462;SDS011;4268;52.506;13.462;2023-05-07T14:30:41;2.80;;;2.60;;
8462;SDS011;4268;52.506;13.462;2023-05-07T14:33:06;3.93;;;3.03;;
8462;SDS011;4268;52.506;13.462;2023-05-07T14:35:32;3.40;;;2.90;;
8462;SDS011;4268;52.506;13.462;2023-05-07T14:37:57;3.10;;;2.90;;
8462;SDS011;4268;52.506;13.462;2023-05-07T14:40:23;3.73;;;3.43;;
8462;SDS011;4268;52.506;13.462;2023-05-07T14:42:48;3.37;;;3.17;;
8462;SDS011;4268;52.506;13.462;2023-05-07T14:45:14;3.57;;;3.00;;
8462;SDS011;4268;52.506;13.462;2023-05-07T14:47:39;3.00;;;2.70;;
8462;SDS011;4268;52.506;13.462;2023-05-07T14:50:05;2.70;;;2.50;;
8462;SDS011;4268;52.506;13.462;2023-05-07T14:52:30;3.37;;;2.60;;
8462;SDS011;4268;52.506;13.462;2023-05-07T14:54:56;3.10;;;2.37;;
8462;SDS011;4268;52.506;13.462;2023-05-07T14:57:21;2.20;;;2.00;;
8462;SDS011;4268;52.506;13.462;2023-05-07T14:59:47;2.40;;;2.30;;
8462;SDS011;4268;52.506;13.462;2023-05-07T15:02:12;2.50;;;2.40;;
8462;SDS011;4268;52.506;13.462;2023-05-07T15:04:38;2.50;;;2.40;;